sensor_id;sensor_type;location;lat;lon;timestamp;pressure;altitude;pressure_sealevel;temperature;humidity
62789;BME280;66401;42.016;21.454;2023-02-01T00:01:50;98715.81;;;2.92;55.58
62789;BME280;66401;42.016;21.454;2023-02-01T00:04:16;98713.78;;;2.96;54.67
62789;BME280;66401;42.016;21.454;2023-02-01T00:06:41;98720.81;;;2.94;55.45
62789;BME280;66401;42.016;21.454;2023-02-01T00:09:07;98718.25;;;2.94;53.97
62789;BME280;66401;42.016;21.454;2023-02-01T00:11:33;98718.00;;;3.06;54.97
62789;BME280;66401;42.016;21.454;2023-02-01T00:13:59;98696.31;;;2.90;54.87
62789;BME280;66401;42.016;21.454;2023-02-01T00:16:27;98702.97;;;2.92;55.25
62789;BME280;66401;42.016;21.454;2023-02-01T00:21:25;98697.38;;;2.87;55.42
62789;BME280;66401;42.016;21.454;2023-02-01T00:23:51;98676.22;;;2.64;54.93
62789;BME280;66401;42.016;21.454;2023-02-01T00:26:20;98689.22;;;2.63;54.80
62789;BME280;66401;42.016;21.454;2023-02-01T00:28:48;98685.97;;;2.61;54.92
62789;BME280;66401;42.016;21.454;2023-02-01T00:31:13;98676.69;;;2.48;54.94
62789;BME280;66401;42.016;21.454;2023-02-01T00:33:39;98652.31;;;2.33;55.71
62789;BME280;66401;42.016;21.454;2023-02-01T00:36:07;98670.63;;;2.49;56.25
62789;BME280;66401;42.016;21.454;2023-02-01T00:38:36;98664.78;;;2.47;55.07
62789;BME280;66401;42.016;21.454;2023-02-01T00:41:07;98673.19;;;2.49;55.13
62789;BME280;66401;42.016;21.454;2023-02-01T00:43:33;98668.03;;;2.49;56.33
62789;BME280;66401;42.016;21.454;2023-02-01T00:46:00;98664.28;;;2.53;56.20
62789;BME280;66401;42.016;21.454;2023-02-01T00:48:26;98649.88;;;2.41;55.64
62789;BME280;66401;42.016;21.454;2023-02-01T00:50:51;98660.28;;;2.40;55.86
62789;BME280;66401;42.016;21.454;2023-02-01T00:53:17;98663.00;;;2.38;55.57
62789;BME280;66401;42.016;21.454;2023-02-01T00:55:47;98658.81;;;2.37;55.92
62789;BME280;66401;42.016;21.454;2023-02-01T00:58:13;98653.66;;;2.37;56.38
62789;BME280;66401;42.016;21.454;2023-02-01T01:00:38;98661.50;;;2.36;55.35
62789;BME280;66401;42.016;21.454;2023-02-01T01:03:04;98650.69;;;2.32;56.95
62789;BME280;66401;42.016;21.454;2023-02-01T01:05:48;98653.91;;;2.24;56.19
62789;BME280;66401;42.016;21.454;2023-02-01T01:08:15;98634.28;;;2.23;55.82
62789;BME280;66401;42.016;21.454;2023-02-01T01:10:41;98650.66;;;2.22;56.89
62789;BME280;66401;42.016;21.454;2023-02-01T01:13:07;98637.66;;;2.24;56.93
62789;BME280;66401;42.016;21.454;2023-02-01T01:15:39;98631.94;;;2.20;57.05
62789;BME280;66401;42.016;21.454;2023-02-01T01:18:05;98641.50;;;2.39;55.39
62789;BME280;66401;42.016;21.454;2023-02-01T01:20:31;98617.09;;;2.24;56.33
62789;BME280;66401;42.016;21.454;2023-02-01T01:22:58;98646.94;;;2.46;56.87
62789;BME280;66401;42.016;21.454;2023-02-01T01:25:24;98641.81;;;2.55;55.31
62789;BME280;66401;42.016;21.454;2023-02-01T01:27:49;98648.84;;;2.53;54.94
62789;BME280;66401;42.016;21.454;2023-02-01T01:30:15;98646.13;;;2.45;56.97
62789;BME280;66401;42.016;21.454;2023-02-01T01:32:41;98641.91;;;2.44;55.91
62789;BME280;66401;42.016;21.454;2023-02-01T01:35:06;98640.97;;;2.45;55.67
62789;BME280;66401;42.016;21.454;2023-02-01T01:37:32;98646.63;;;2.39;56.63
62789;BME280;66401;42.016;21.454;2023-02-01T01:39:57;98643.34;;;2.27;57.04
62789;BME280;66401;42.016;21.454;2023-02-01T01:42:23;98647.94;;;2.24;58.80
62789;BME280;66401;42.016;21.454;2023-02-01T01:45:05;98641.00;;;2.15;56.52
62789;BME280;66401;42.016;21.454;2023-02-01T01:47:37;98649.84;;;2.32;56.99
62789;BME280;66401;42.016;21.454;2023-02-01T01:50:07;98627.03;;;2.08;58.53
62789;BME280;66401;42.016;21.454;2023-02-01T01:52:33;98642.19;;;2.11;59.69
62789;BME280;66401;42.016;21.454;2023-02-01T01:55:00;98639.53;;;2.22;59.93
62789;BME280;66401;42.016;21.454;2023-02-01T01:57:31;98648.72;;;2.15;58.71
62789;BME280;66401;42.016;21.454;2023-02-01T02:00:10;98640.56;;;2.10;58.66
62789;BME280;66401;42.016;21.454;2023-02-01T02:02:37;98635.19;;;2.13;58.55
62789;BME280;66401;42.016;21.454;2023-02-01T02:05:04;98626.59;;;2.03;59.68
62789;BME280;66401;42.016;21.454;2023-02-01T02:07:34;98643.66;;;2.04;59.81
62789;BME280;66401;42.016;21.454;2023-02-01T02:10:03;98636.47;;;1.97;61.06
62789;BME280;66401;42.016;21.454;2023-02-01T02:12:31;98639.41;;;1.93;60.14
62789;BME280;66401;42.016;21.454;2023-02-01T02:14:58;98634.88;;;2.06;57.52
62789;BME280;66401;42.016;21.454;2023-02-01T02:18:07;98642.38;;;2.19;55.46
62789;BME280;66401;42.016;21.454;2023-02-01T02:23:12;98637.91;;;2.21;58.34
62789;BME280;66401;42.016;21.454;2023-02-01T02:25:55;98635.19;;;2.13;60.68
62789;BME280;66401;42.016;21.454;2023-02-01T02:36:50;98625.31;;;2.18;57.13
62789;BME280;66401;42.016;21.454;2023-02-01T02:42:06;98632.03;;;2.49;55.23
62789;BME280;66401;42.016;21.454;2023-02-01T02:44:57;98627.28;;;2.35;56.12
62789;BME280;66401;42.016;21.454;2023-02-01T02:56:26;98649.81;;;2.22;57.88
62789;BME280;66401;42.016;21.454;2023-02-01T02:59:13;98646.31;;;2.23;56.58
62789;BME280;66401;42.016;21.454;2023-02-01T03:01:58;98650.38;;;2.25;59.25
62789;BME280;66401;42.016;21.454;2023-02-01T03:04:42;98639.97;;;2.27;56.65
62789;BME280;66401;42.016;21.454;2023-02-01T03:12:49;98656.63;;;2.33;57.17
62789;BME280;66401;42.016;21.454;2023-02-01T03:15:32;98657.34;;;2.44;56.49
62789;BME280;66401;42.016;21.454;2023-02-01T03:18:01;98668.78;;;2.61;56.13
62789;BME280;66401;42.016;21.454;2023-02-01T03:20:30;98674.28;;;2.56;55.19
62789;BME280;66401;42.016;21.454;2023-02-01T03:22:57;98678.63;;;2.56;56.49
62789;BME280;66401;42.016;21.454;2023-02-01T03:25:30;98677.16;;;2.63;56.05
62789;BME280;66401;42.016;21.454;2023-02-01T03:28:04;98678.13;;;2.72;56.39
62789;BME280;66401;42.016;21.454;2023-02-01T03:30:38;98684.88;;;2.63;57.63
62789;BME280;66401;42.016;21.454;2023-02-01T03:33:10;98650.75;;;2.51;56.71
62789;BME280;66401;42.016;21.454;2023-02-01T03:36:26;98686.63;;;2.63;56.62
62789;BME280;66401;42.016;21.454;2023-02-01T03:39:15;98677.41;;;2.60;56.07
62789;BME280;66401;42.016;21.454;2023-02-01T03:41:45;98663.47;;;2.53;56.68
62789;BME280;66401;42.016;21.454;2023-02-01T03:44:29;98672.66;;;2.55;56.01
62789;BME280;66401;42.016;21.454;2023-02-01T03:47:03;98664.78;;;2.47;56.19
62789;BME280;66401;42.016;21.454;2023-02-01T03:49:52;98662.69;;;2.62;55.17
62789;BME280;66401;42.016;21.454;2023-02-01T03:52:25;98659.97;;;2.64;55.72
62789;BME280;66401;42.016;21.454;2023-02-01T03:54:54;98664.69;;;2.58;56.18
62789;BME280;66401;42.016;21.454;2023-02-01T03:57:26;98663.50;;;2.63;54.98
62789;BME280;66401;42.016;21.454;2023-02-01T03:59:54;98664.06;;;2.76;56.61
62789;BME280;66401;42.016;21.454;2023-02-01T04:02:19;98645.94;;;2.87;53.66
62789;BME280;66401;42.016;21.454;2023-02-01T04:04:45;98663.53;;;2.82;54.31
62789;BME280;66401;42.016;21.454;2023-02-01T04:07:10;98658.63;;;2.79;55.22
62789;BME280;66401;42.016;21.454;2023-02-01T04:09:37;98655.53;;;2.85;54.01
62789;BME280;66401;42.016;21.454;2023-02-01T04:12:02;98662.44;;;2.75;55.16
62789;BME280;66401;42.016;21.454;2023-02-01T04:14:28;98655.16;;;2.80;55.44
62789;BME280;66401;42.016;21.454;2023-02-01T04:16:53;98647.53;;;2.69;55.26
62789;BME280;66401;42.016;21.454;2023-02-01T04:19:19;98657.00;;;2.78;53.25
62789;BME280;66401;42.016;21.454;2023-02-01T04:21:44;98642.09;;;2.62;55.74
62789;BME280;66401;42.016;21.454;2023-02-01T04:24:10;98637.50;;;2.66;52.28
62789;BME280;66401;42.016;21.454;2023-02-01T04:26:36;98660.00;;;2.73;54.25
62789;BME280;66401;42.016;21.454;2023-02-01T04:29:01;98664.59;;;2.79;56.03
62789;BME280;66401;42.016;21.454;2023-02-01T04:31:27;98657.53;;;2.62;56.05
62789;BME280;66401;42.016;21.454;2023-02-01T04:33:54;98646.66;;;2.49;57.16
62789;BME280;66401;42.016;21.454;2023-02-01T04:36:21;98627.63;;;2.21;58.72
62789;BME280;66401;42.016;21.454;2023-02-01T04:38:50;98659.06;;;2.34;58.50
62789;BME280;66401;42.016;21.454;2023-02-01T04:41:16;98639.75;;;2.09;60.20
62789;BME280;66401;42.016;21.454;2023-02-01T04:43:47;98654.88;;;2.03;59.10
62789;BME280;66401;42.016;21.454;2023-02-01T04:46:13;98652.91;;;1.85;60.54
62789;BME280;66401;42.016;21.454;2023-02-01T04:48:39;98655.28;;;1.77;60.80
62789;BME280;66401;42.016;21.454;2023-02-01T04:51:04;98652.16;;;1.94;61.53
62789;BME280;66401;42.016;21.454;2023-02-01T04:53:30;98638.59;;;1.92;61.30
62789;BME280;66401;42.016;21.454;2023-02-01T04:55:55;98646.38;;;1.81;60.05
62789;BME280;66401;42.016;21.454;2023-02-01T04:58:21;98665.09;;;1.93;60.58
62789;BME280;66401;42.016;21.454;2023-02-01T05:00:47;98669.78;;;2.09;59.72
62789;BME280;66401;42.016;21.454;2023-02-01T05:03:12;98669.22;;;2.05;61.92
62789;BME280;66401;42.016;21.454;2023-02-01T05:05:38;98671.63;;;1.97;61.79
62789;BME280;66401;42.016;21.454;2023-02-01T05:08:04;98672.94;;;1.91;60.97
62789;BME280;66401;42.016;21.454;2023-02-01T05:10:29;98677.19;;;1.81;61.67
62789;BME280;66401;42.016;21.454;2023-02-01T05:12:55;98668.19;;;1.66;61.79
62789;BME280;66401;42.016;21.454;2023-02-01T05:15:38;98668.94;;;1.57;62.78
62789;BME280;66401;42.016;21.454;2023-02-01T05:18:04;98679.16;;;1.47;64.22
62789;BME280;66401;42.016;21.454;2023-02-01T05:20:29;98666.03;;;1.29;63.86
62789;BME280;66401;42.016;21.454;2023-02-01T05:22:55;98701.88;;;1.52;65.13
62789;BME280;66401;42.016;21.454;2023-02-01T05:25:20;98695.59;;;1.44;64.25
62789;BME280;66401;42.016;21.454;2023-02-01T05:27:46;98707.81;;;1.52;63.88
62789;BME280;66401;42.016;21.454;2023-02-01T05:30:12;98718.09;;;1.73;64.33
62789;BME280;66401;42.016;21.454;2023-02-01T05:32:37;98707.78;;;1.84;63.62
62789;BME280;66401;42.016;21.454;2023-02-01T05:35:03;98697.25;;;1.66;63.54
62789;BME280;66401;42.016;21.454;2023-02-01T05:37:28;98700.19;;;1.62;63.74
62789;BME280;66401;42.016;21.454;2023-02-01T05:39:54;98713.34;;;1.68;63.24
62789;BME280;66401;42.016;21.454;2023-02-01T05:42:19;98704.63;;;1.60;62.57
62789;BME280;66401;42.016;21.454;2023-02-01T05:44:45;98730.72;;;1.76;62.94
62789;BME280;66401;42.016;21.454;2023-02-01T05:47:10;98734.84;;;1.88;63.36
62789;BME280;66401;42.016;21.454;2023-02-01T05:49:37;98734.84;;;1.88;63.05
62789;BME280;66401;42.016;21.454;2023-02-01T05:52:03;98725.03;;;1.93;63.06
62789;BME280;66401;42.016;21.454;2023-02-01T05:54:28;98739.97;;;1.88;63.35
62789;BME280;66401;42.016;21.454;2023-02-01T05:56:54;98718.63;;;1.88;64.39
62789;BME280;66401;42.016;21.454;2023-02-01T05:59:20;98727.06;;;1.99;63.09
62789;BME280;66401;42.016;21.454;2023-02-01T06:01:45;98719.16;;;1.91;62.88
62789;BME280;66401;42.016;21.454;2023-02-01T06:04:11;98737.06;;;2.03;62.77
62789;BME280;66401;42.016;21.454;2023-02-01T06:06:36;98728.69;;;2.00;63.26
62789;BME280;66401;42.016;21.454;2023-02-01T06:09:02;98748.94;;;2.15;63.72
62789;BME280;66401;42.016;21.454;2023-02-01T06:11:28;98740.34;;;2.05;61.13
62789;BME280;66401;42.016;21.454;2023-02-01T06:13:53;98704.88;;;1.98;61.04
62789;BME280;66401;42.016;21.454;2023-02-01T06:16:20;98729.31;;;2.14;63.18
62789;BME280;66401;42.016;21.454;2023-02-01T06:18:46;98724.00;;;2.06;62.56
62789;BME280;66401;42.016;21.454;2023-02-01T06:21:12;98737.97;;;2.13;62.02
62789;BME280;66401;42.016;21.454;2023-02-01T06:23:39;98746.09;;;2.18;61.94
62789;BME280;66401;42.016;21.454;2023-02-01T06:26:06;98740.22;;;2.27;62.48
62789;BME280;66401;42.016;21.454;2023-02-01T06:28:34;98742.09;;;2.25;62.75
62789;BME280;66401;42.016;21.454;2023-02-01T06:31:04;98746.09;;;2.18;64.68
62789;BME280;66401;42.016;21.454;2023-02-01T06:33:32;98747.47;;;2.22;64.50
62789;BME280;66401;42.016;21.454;2023-02-01T06:35:59;98720.34;;;2.08;64.35
62789;BME280;66401;42.016;21.454;2023-02-01T06:38:26;98744.75;;;2.14;64.08
62789;BME280;66401;42.016;21.454;2023-02-01T06:40:56;98741.03;;;2.07;64.62
62789;BME280;66401;42.016;21.454;2023-02-01T06:43:23;98748.50;;;2.10;64.08
62789;BME280;66401;42.016;21.454;2023-02-01T06:45:49;98745.97;;;2.19;63.87
62789;BME280;66401;42.016;21.454;2023-02-01T06:48:15;98740.66;;;2.32;64.23
62789;BME280;66401;42.016;21.454;2023-02-01T06:50:40;98735.50;;;2.32;63.12
62789;BME280;66401;42.016;21.454;2023-02-01T06:53:06;98753.25;;;2.35;64.14
62789;BME280;66401;42.016;21.454;2023-02-01T06:55:32;98761.81;;;2.45;64.14
62789;BME280;66401;42.016;21.454;2023-02-01T06:57:58;98763.88;;;2.51;64.25
62789;BME280;66401;42.016;21.454;2023-02-01T07:00:23;98767.84;;;2.35;64.88
62789;BME280;66401;42.016;21.454;2023-02-01T07:02:49;98769.41;;;2.26;64.42
62789;BME280;66401;42.016;21.454;2023-02-01T07:05:15;98786.25;;;2.40;64.26
62789;BME280;66401;42.016;21.454;2023-02-01T07:07:41;98780.47;;;2.78;63.37
62789;BME280;66401;42.016;21.454;2023-02-01T07:10:06;98790.34;;;3.13;63.66
62789;BME280;66401;42.016;21.454;2023-02-01T07:12:32;98790.69;;;3.39;61.82
62789;BME280;66401;42.016;21.454;2023-02-01T07:14:58;98786.09;;;3.52;59.22
62789;BME280;66401;42.016;21.454;2023-02-01T07:17:24;98788.97;;;3.68;58.53
62789;BME280;66401;42.016;21.454;2023-02-01T07:19:50;98798.84;;;3.83;59.01
62789;BME280;66401;42.016;21.454;2023-02-01T07:22:18;98806.72;;;3.91;59.64
62789;BME280;66401;42.016;21.454;2023-02-01T07:24:44;98820.94;;;3.85;59.89
62789;BME280;66401;42.016;21.454;2023-02-01T07:27:09;98821.88;;;4.13;57.80
62789;BME280;66401;42.016;21.454;2023-02-01T07:29:35;98829.22;;;4.08;58.37
62789;BME280;66401;42.016;21.454;2023-02-01T07:32:00;98828.00;;;4.12;58.54
62789;BME280;66401;42.016;21.454;2023-02-01T07:34:27;98823.81;;;4.01;58.05
62789;BME280;66401;42.016;21.454;2023-02-01T07:36:53;98831.66;;;3.61;58.16
62789;BME280;66401;42.016;21.454;2023-02-01T07:39:19;98846.19;;;3.82;58.33
62789;BME280;66401;42.016;21.454;2023-02-01T07:41:45;98846.84;;;3.84;55.59
62789;BME280;66401;42.016;21.454;2023-02-01T07:44:11;98853.09;;;3.91;56.73
62789;BME280;66401;42.016;21.454;2023-02-01T07:46:36;98837.78;;;4.84;54.30
62789;BME280;66401;42.016;21.454;2023-02-01T07:49:03;98830.31;;;5.36;50.80
62789;BME280;66401;42.016;21.454;2023-02-01T07:51:29;98836.31;;;6.18;46.85
62789;BME280;66401;42.016;21.454;2023-02-01T07:53:54;98825.00;;;6.19;46.58
62789;BME280;66401;42.016;21.454;2023-02-01T07:56:21;98839.03;;;6.86;44.69
62789;BME280;66401;42.016;21.454;2023-02-01T07:58:52;98835.69;;;6.68;44.23
62789;BME280;66401;42.016;21.454;2023-02-01T08:01:21;98833.47;;;6.47;44.43
62789;BME280;66401;42.016;21.454;2023-02-01T08:04:00;98835.75;;;6.76;43.98
62789;BME280;66401;42.016;21.454;2023-02-01T08:06:31;98826.84;;;6.52;44.70
62789;BME280;66401;42.016;21.454;2023-02-01T08:08:57;98831.78;;;6.38;46.40
62789;BME280;66401;42.016;21.454;2023-02-01T08:11:24;98835.59;;;6.51;46.55
62789;BME280;66401;42.016;21.454;2023-02-01T08:13:50;98857.78;;;6.36;47.67
62789;BME280;66401;42.016;21.454;2023-02-01T08:16:17;98844.59;;;6.73;45.99
62789;BME280;66401;42.016;21.454;2023-02-01T08:18:44;98849.41;;;6.86;46.47
62789;BME280;66401;42.016;21.454;2023-02-01T08:21:19;98847.97;;;6.22;47.26
62789;BME280;66401;42.016;21.454;2023-02-01T08:23:45;98845.16;;;5.80;48.65
62789;BME280;66401;42.016;21.454;2023-02-01T08:26:16;98849.88;;;6.38;48.35
62789;BME280;66401;42.016;21.454;2023-02-01T08:28:45;98860.84;;;6.83;46.26
62789;BME280;66401;42.016;21.454;2023-02-01T08:31:13;98820.06;;;6.51;46.58
62789;BME280;66401;42.016;21.454;2023-02-01T08:33:43;98860.53;;;6.35;46.97
62789;BME280;66401;42.016;21.454;2023-02-01T08:36:10;98857.38;;;6.75;46.97
62789;BME280;66401;42.016;21.454;2023-02-01T08:38:37;98877.59;;;6.71;46.67
62789;BME280;66401;42.016;21.454;2023-02-01T08:41:05;98850.78;;;6.54;47.70
62789;BME280;66401;42.016;21.454;2023-02-01T08:43:31;98849.88;;;6.38;47.78
62789;BME280;66401;42.016;21.454;2023-02-01T08:45:56;98833.19;;;6.84;46.50
62789;BME280;66401;42.016;21.454;2023-02-01T08:48:22;98853.00;;;6.23;48.74
62789;BME280;66401;42.016;21.454;2023-02-01T08:50:47;98864.63;;;7.73;45.84
62789;BME280;66401;42.016;21.454;2023-02-01T08:53:12;98858.31;;;7.76;45.63
62789;BME280;66401;42.016;21.454;2023-02-01T08:55:39;98857.53;;;8.16;44.20
62789;BME280;66401;42.016;21.454;2023-02-01T08:58:04;98845.94;;;7.11;45.25
62789;BME280;66401;42.016;21.454;2023-02-01T09:00:30;98846.28;;;7.59;44.94
62789;BME280;66401;42.016;21.454;2023-02-01T09:02:55;98842.81;;;7.34;45.06
62789;BME280;66401;42.016;21.454;2023-02-01T09:05:21;98838.16;;;7.11;46.00
62789;BME280;66401;42.016;21.454;2023-02-01T09:07:48;98848.78;;;6.40;47.30
62789;BME280;66401;42.016;21.454;2023-02-01T09:10:14;98851.88;;;6.26;47.37
62789;BME280;66401;42.016;21.454;2023-02-01T09:12:39;98847.13;;;6.91;47.57
62789;BME280;66401;42.016;21.454;2023-02-01T09:15:05;98849.44;;;7.36;47.38
62789;BME280;66401;42.016;21.454;2023-02-01T09:17:32;98847.06;;;7.59;45.46
62789;BME280;66401;42.016;21.454;2023-02-01T09:19:58;98850.06;;;7.89;44.82
62789;BME280;66401;42.016;21.454;2023-02-01T09:22:23;98841.63;;;8.27;43.26
62789;BME280;66401;42.016;21.454;2023-02-01T09:24:49;98831.94;;;8.54;43.69
62789;BME280;66401;42.016;21.454;2023-02-01T09:27:15;98832.97;;;9.00;41.20
62789;BME280;66401;42.016;21.454;2023-02-01T09:29:40;98829.13;;;8.80;41.50
62789;BME280;66401;42.016;21.454;2023-02-01T09:32:06;98835.16;;;8.64;42.17
62789;BME280;66401;42.016;21.454;2023-02-01T09:34:32;98835.31;;;8.63;42.04
62789;BME280;66401;42.016;21.454;2023-02-01T09:36:58;98827.91;;;13.04;34.96
62789;BME280;66401;42.016;21.454;2023-02-01T09:39:23;98828.47;;;13.34;32.85
62789;BME280;66401;42.016;21.454;2023-02-01T09:47:47;98808.41;;;11.37;35.02
62789;BME280;66401;42.016;21.454;2023-02-01T09:50:20;98805.41;;;10.45;37.13
62789;BME280;66401;42.016;21.454;2023-02-01T09:52:59;98815.59;;;14.59;31.03
62789;BME280;66401;42.016;21.454;2023-02-01T09:58:08;98806.16;;;21.90;21.67
62789;BME280;66401;42.016;21.454;2023-02-01T10:00:39;98805.88;;;24.17;19.70
62789;BME280;66401;42.016;21.454;2023-02-01T10:03:10;98792.72;;;27.25;15.88
62789;BME280;66401;42.016;21.454;2023-02-01T10:08:25;98779.41;;;29.74;13.61
62789;BME280;66401;42.016;21.454;2023-02-01T10:11:06;98775.44;;;29.72;13.14
62789;BME280;66401;42.016;21.454;2023-02-01T10:16:09;98765.25;;;29.10;13.17
62789;BME280;66401;42.016;21.454;2023-02-01T10:21:39;98742.00;;;30.31;12.59
62789;BME280;66401;42.016;21.454;2023-02-01T10:27:02;98714.09;;;31.41;11.77
62789;BME280;66401;42.016;21.454;2023-02-01T10:29:39;98726.19;;;32.16;11.05
62789;BME280;66401;42.016;21.454;2023-02-01T10:32:24;98720.09;;;32.37;10.64
62789;BME280;66401;42.016;21.454;2023-02-01T10:35:04;98705.25;;;31.23;11.12
62789;BME280;66401;42.016;21.454;2023-02-01T10:37:35;98702.41;;;31.28;11.33
62789;BME280;66401;42.016;21.454;2023-02-01T10:40:19;98695.41;;;31.01;12.36
62789;BME280;66401;42.016;21.454;2023-02-01T10:42:48;98699.00;;;30.71;12.13
62789;BME280;66401;42.016;21.454;2023-02-01T10:45:20;98681.28;;;32.21;11.07
62789;BME280;66401;42.016;21.454;2023-02-01T10:47:50;98680.38;;;32.84;10.98
62789;BME280;66401;42.016;21.454;2023-02-01T10:55:53;98670.44;;;29.28;13.75
62789;BME280;66401;42.016;21.454;2023-02-01T10:58:30;98673.84;;;30.75;12.37
62789;BME280;66401;42.016;21.454;2023-02-01T11:01:02;98667.41;;;31.37;11.21
62789;BME280;66401;42.016;21.454;2023-02-01T11:03:53;98666.59;;;31.11;11.61
62789;BME280;66401;42.016;21.454;2023-02-01T11:08:53;98645.22;;;31.05;12.10
62789;BME280;66401;42.016;21.454;2023-02-01T11:11:20;98650.94;;;31.47;11.14
62789;BME280;66401;42.016;21.454;2023-02-01T11:13:53;98642.44;;;31.83;10.71
62789;BME280;66401;42.016;21.454;2023-02-01T11:16:19;98631.41;;;31.76;11.01
62789;BME280;66401;42.016;21.454;2023-02-01T11:18:44;98624.03;;;31.13;10.57
62789;BME280;66401;42.016;21.454;2023-02-01T11:21:14;98636.34;;;31.48;11.24
62789;BME280;66401;42.016;21.454;2023-02-01T11:23:43;98631.00;;;31.31;11.76
62789;BME280;66401;42.016;21.454;2023-02-01T11:26:28;98617.50;;;27.93;12.88
62789;BME280;66401;42.016;21.454;2023-02-01T11:29:01;98617.75;;;30.26;11.65
62789;BME280;66401;42.016;21.454;2023-02-01T11:31:28;98612.22;;;27.88;13.43
62789;BME280;66401;42.016;21.454;2023-02-01T11:34:16;98618.66;;;27.73;13.44
62789;BME280;66401;42.016;21.454;2023-02-01T11:36:45;98619.50;;;26.66;14.67
62789;BME280;66401;42.016;21.454;2023-02-01T11:41:55;98594.00;;;26.73;13.99
62789;BME280;66401;42.016;21.454;2023-02-01T11:44:39;98599.25;;;28.50;13.39
62789;BME280;66401;42.016;21.454;2023-02-01T11:47:24;98602.50;;;29.64;11.74
62789;BME280;66401;42.016;21.454;2023-02-01T11:49:55;98590.03;;;28.01;12.53
62789;BME280;66401;42.016;21.454;2023-02-01T12:05:47;98595.75;;;23.86;16.94
62789;BME280;66401;42.016;21.454;2023-02-01T12:11:28;98588.66;;;26.73;15.10
62789;BME280;66401;42.016;21.454;2023-02-01T12:19:27;98580.00;;;25.38;15.06
62789;BME280;66401;42.016;21.454;2023-02-01T12:40:57;98537.66;;;21.26;19.84
62789;BME280;66401;42.016;21.454;2023-02-01T12:46:40;98536.34;;;21.70;19.80
62789;BME280;66401;42.016;21.454;2023-02-01T12:49:20;98509.16;;;23.04;18.21
62789;BME280;66401;42.016;21.454;2023-02-01T12:51:55;98517.91;;;23.04;18.31
62789;BME280;66401;42.016;21.454;2023-02-01T12:54:49;98513.03;;;22.30;18.06
62789;BME280;66401;42.016;21.454;2023-02-01T12:57:25;98510.75;;;21.91;19.38
62789;BME280;66401;42.016;21.454;2023-02-01T13:05:11;98489.53;;;18.83;22.22
62789;BME280;66401;42.016;21.454;2023-02-01T13:07:43;98490.91;;;19.02;21.81
62789;BME280;66401;42.016;21.454;2023-02-01T13:10:40;98489.38;;;16.94;22.94
62789;BME280;66401;42.016;21.454;2023-02-01T13:16:34;98483.28;;;17.63;23.43
62789;BME280;66401;42.016;21.454;2023-02-01T13:18:39;98482.16;;;16.59;23.26
62789;BME280;66401;42.016;21.454;2023-02-01T13:21:25;98443.03;;;14.99;26.04
62789;BME280;66401;42.016;21.454;2023-02-01T13:23:52;98467.75;;;17.03;23.60
62789;BME280;66401;42.016;21.454;2023-02-01T13:26:18;98475.41;;;17.05;22.95
62789;BME280;66401;42.016;21.454;2023-02-01T13:45:15;98483.34;;;16.03;23.42
62789;BME280;66401;42.016;21.454;2023-02-01T13:47:44;98480.16;;;16.31;23.92
62789;BME280;66401;42.016;21.454;2023-02-01T13:52:55;98484.59;;;14.71;26.34
62789;BME280;66401;42.016;21.454;2023-02-01T13:57:49;98482.34;;;14.36;26.16
62789;BME280;66401;42.016;21.454;2023-02-01T14:08:39;98477.69;;;15.01;24.33
62789;BME280;66401;42.016;21.454;2023-02-01T14:11:05;98453.56;;;14.93;26.47
62789;BME280;66401;42.016;21.454;2023-02-01T14:13:39;98474.06;;;15.27;24.62
62789;BME280;66401;42.016;21.454;2023-02-01T14:23:46;98496.56;;;14.22;27.99
62789;BME280;66401;42.016;21.454;2023-02-01T14:26:24;98488.22;;;13.22;28.35
62789;BME280;66401;42.016;21.454;2023-02-01T14:28:51;98483.94;;;12.81;29.38
62789;BME280;66401;42.016;21.454;2023-02-01T14:34:11;98480.31;;;12.56;30.35
62789;BME280;66401;42.016;21.454;2023-02-01T14:36:41;98480.53;;;12.87;29.66
62789;BME280;66401;42.016;21.454;2023-02-01T14:39:24;98475.91;;;12.70;28.95
62789;BME280;66401;42.016;21.454;2023-02-01T14:41:57;98491.22;;;12.05;30.23
62789;BME280;66401;42.016;21.454;2023-02-01T14:44:27;98472.91;;;11.23;31.60
62789;BME280;66401;42.016;21.454;2023-02-01T14:47:03;98469.97;;;11.73;31.54
62789;BME280;66401;42.016;21.454;2023-02-01T14:49:32;98469.72;;;12.03;30.90
62789;BME280;66401;42.016;21.454;2023-02-01T14:51:59;98479.41;;;12.09;32.02
62789;BME280;66401;42.016;21.454;2023-02-01T14:54:25;98478.81;;;12.20;30.68
62789;BME280;66401;42.016;21.454;2023-02-01T14:56:52;98476.88;;;11.81;31.39
62789;BME280;66401;42.016;21.454;2023-02-01T14:59:22;98482.66;;;11.42;32.76
62789;BME280;66401;42.016;21.454;2023-02-01T15:01:56;98479.75;;;11.58;32.79
62789;BME280;66401;42.016;21.454;2023-02-01T15:04:25;98478.28;;;11.49;32.39
62789;BME280;66401;42.016;21.454;2023-02-01T15:06:58;98478.53;;;11.26;32.02
62789;BME280;66401;42.016;21.454;2023-02-01T15:09:33;98476.03;;;11.11;32.20
62789;BME280;66401;42.016;21.454;2023-02-01T15:19:56;98488.72;;;10.29;32.89
62789;BME280;66401;42.016;21.454;2023-02-01T15:22:22;98497.25;;;10.23;33.37
62789;BME280;66401;42.016;21.454;2023-02-01T15:24:56;98494.75;;;10.15;33.65
62789;BME280;66401;42.016;21.454;2023-02-01T15:27:22;98498.19;;;10.00;34.12
62789;BME280;66401;42.016;21.454;2023-02-01T15:29:47;98510.47;;;9.92;34.51
62789;BME280;66401;42.016;21.454;2023-02-01T15:32:34;98514.34;;;9.81;34.30
62789;BME280;66401;42.016;21.454;2023-02-01T15:35:01;98504.59;;;9.68;35.00
62789;BME280;66401;42.016;21.454;2023-02-01T15:37:27;98511.06;;;9.58;35.17
62789;BME280;66401;42.016;21.454;2023-02-01T15:42:35;98512.31;;;9.47;35.43
62789;BME280;66401;42.016;21.454;2023-02-01T15:45:02;98516.50;;;9.33;35.75
62789;BME280;66401;42.016;21.454;2023-02-01T15:47:29;98518.47;;;9.31;36.47
62789;BME280;66401;42.016;21.454;2023-02-01T15:49:58;98518.16;;;9.26;36.11
62789;BME280;66401;42.016;21.454;2023-02-01T15:52:37;98478.25;;;8.89;37.56
62789;BME280;66401;42.016;21.454;2023-02-01T15:55:54;98500.34;;;8.85;39.65